Terminal Aerodrome Forecast
Issued by NWS

Current Version | Previous Version | Text Only | Print | Product List | Glossary On
Versions: 1 2 3 4 5 6 7 8 9 10 11 12 13 14 15 16 17 18 19 20 21 22 23 24 25 26 27 28 29 30 31 32 33 34 35
000
FTAK31 PANC 041131
TAFACD
TAF
PACD 041131Z 0412/0512 14025KT P6SM -SHRA SCT018 OVC025
     FM041400 12025G34KT 6SM -RA OVC018
     FM050400 12013KT P6SM -SHRA SCT018 OVC030=

USA.gov is the U.S. government's official web portal to all federal, state and local government web resources and services.